createdAt,value
2023-03-17T00:01:16.362Z,12.73
2023-03-17T00:03:45.545Z,12.42
2023-03-17T00:06:16.686Z,12.88
2023-03-17T00:08:44.147Z,12.58
2023-03-17T00:11:16.290Z,12.09
2023-03-17T00:13:44.562Z,12.28
2023-03-17T00:16:16.954Z,11.85
2023-03-17T00:18:44.660Z,11.97
2023-03-17T00:21:19.517Z,12.60
2023-03-17T00:23:49.715Z,11.74
2023-03-17T00:26:17.530Z,12.79
2023-03-17T00:28:46.160Z,12.73
2023-03-17T00:31:15.107Z,12.34
2023-03-17T00:33:43.037Z,11.75
2023-03-17T00:36:16.652Z,12.34
2023-03-17T00:38:43.674Z,11.87
2023-03-17T00:41:11.309Z,11.51
2023-03-17T00:43:38.147Z,12.51
2023-03-17T00:46:25.166Z,12.69
2023-03-17T00:48:51.963Z,12.52
2023-03-17T00:51:18.424Z,11.77
2023-03-17T00:53:45.769Z,11.68
2023-03-17T00:56:15.735Z,11.21
2023-03-17T00:58:43.238Z,11.81
2023-03-17T01:01:13.388Z,11.97
2023-03-17T01:03:43.169Z,11.78
2023-03-17T01:06:12.898Z,12.38
2023-03-17T01:08:40.669Z,10.89
2023-03-17T01:11:10.585Z,11.32
2023-03-17T01:13:37.052Z,11.09
2023-03-17T01:16:03.637Z,12.36
2023-03-17T01:18:30.199Z,11.10
2023-03-17T01:20:56.696Z,11.51
2023-03-17T01:23:23.109Z,11.34
2023-03-17T01:25:50.114Z,12.37
2023-03-17T01:28:18.481Z,11.71
2023-03-17T01:30:45.499Z,11.52
2023-03-17T01:33:14.528Z,11.55
2023-03-17T01:35:43.647Z,12.25
2023-03-17T01:38:10.571Z,12.32
2023-03-17T01:40:42.694Z,11.07
2023-03-17T01:43:09.144Z,12.46
2023-03-17T01:46:13.253Z,12.18
2023-03-17T01:48:44.609Z,12.25
2023-03-17T01:51:35.800Z,12.28
2023-03-17T01:54:08.332Z,12.29
2023-03-17T01:56:36.343Z,12.10
2023-03-17T01:59:07.418Z,11.72
2023-03-17T02:01:38.577Z,12.16
2023-03-17T02:04:06.412Z,10.92
2023-03-17T02:06:33.656Z,12.25
2023-03-17T02:09:04.456Z,10.87
2023-03-17T02:11:34.237Z,10.97
2023-03-17T02:14:00.662Z,11.39
2023-03-17T02:16:29.962Z,11.61
2023-03-17T02:18:56.549Z,11.44
2023-03-17T02:21:37.106Z,11.66
2023-03-17T02:24:07.913Z,11.15
2023-03-17T02:26:36.226Z,10.95
2023-03-17T02:29:09.406Z,11.05
2023-03-17T02:31:38.698Z,11.58
2023-03-17T02:34:07.720Z,11.27
2023-03-17T02:36:35.979Z,11.26
2023-03-17T02:39:06.777Z,11.15
2023-03-17T02:41:34.220Z,11.42
2023-03-17T02:44:06.370Z,11.64
2023-03-17T02:46:32.846Z,11.85
2023-03-17T02:49:00.613Z,11.75
2023-03-17T02:51:27.069Z,11.41
2023-03-17T02:53:53.515Z,11.82
2023-03-17T02:56:20.048Z,12.00
2023-03-17T02:58:51.574Z,11.49
2023-03-17T03:01:18.476Z,11.59
2023-03-17T03:03:45.010Z,11.00
2023-03-17T03:06:16.197Z,11.26
2023-03-17T03:08:42.789Z,11.81
2023-03-17T03:11:09.168Z,10.88
2023-03-17T03:13:36.600Z,11.27
2023-03-17T03:16:05.858Z,11.93
2023-03-17T03:18:34.585Z,11.74
2023-03-17T03:21:01.459Z,12.01
2023-03-17T03:23:28.140Z,11.07
2023-03-17T03:25:57.594Z,10.94
2023-03-17T03:28:24.274Z,11.86
2023-03-17T03:30:50.779Z,11.75
2023-03-17T03:33:17.940Z,10.63
2023-03-17T03:35:44.424Z,11.86
2023-03-17T03:38:12.986Z,11.67
2023-03-17T03:40:39.699Z,11.94
2023-03-17T03:43:16.235Z,11.36
2023-03-17T03:45:48.463Z,11.75
2023-03-17T03:48:14.967Z,11.50
2023-03-17T03:50:41.435Z,11.13
2023-03-17T03:53:07.857Z,11.60
2023-03-17T03:55:34.375Z,11.25
2023-03-17T03:58:03.298Z,10.56
2023-03-17T04:00:30.098Z,11.77
2023-03-17T04:02:56.657Z,11.12
2023-03-17T04:05:23.104Z,11.72
2023-03-17T04:07:49.641Z,10.64
2023-03-17T04:10:19.574Z,11.32
2023-03-17T04:12:49.923Z,11.39
2023-03-17T04:15:18.578Z,11.29
2023-03-17T04:17:45.334Z,11.24
2023-03-17T04:20:13.463Z,11.37
2023-03-17T04:22:41.641Z,10.67
2023-03-17T04:25:12.853Z,11.80
2023-03-17T04:27:39.254Z,11.22
2023-03-17T04:30:07.796Z,10.65
2023-03-17T04:32:34.682Z,11.16
2023-03-17T04:35:01.250Z,10.79
2023-03-17T04:37:27.653Z,10.89
2023-03-17T04:39:55.785Z,11.59
2023-03-17T04:42:22.317Z,10.46
2023-03-17T04:44:48.738Z,11.47
2023-03-17T04:47:18.289Z,10.43
2023-03-17T04:49:44.753Z,11.10
2023-03-17T04:52:11.464Z,10.34
2023-03-17T04:54:40.287Z,10.46
2023-03-17T04:57:06.899Z,10.28
2023-03-17T04:59:35.723Z,11.47
2023-03-17T05:02:02.355Z,10.28
2023-03-17T05:04:32.023Z,11.43
2023-03-17T05:06:59.293Z,10.73
2023-03-17T05:09:28.721Z,10.90
2023-03-17T05:11:55.634Z,11.46
2023-03-17T05:14:22.404Z,10.95
2023-03-17T05:16:49.474Z,10.99
2023-03-17T05:19:17.408Z,11.54
2023-03-17T05:21:44.168Z,11.67
2023-03-17T05:24:10.707Z,11.10
2023-03-17T05:26:37.583Z,10.15
2023-03-17T05:29:04.530Z,11.11
2023-03-17T05:31:31.874Z,11.18
2023-03-17T05:33:58.763Z,10.83
2023-03-17T05:36:25.138Z,10.17
2023-03-17T05:38:52.277Z,11.38
2023-03-17T05:41:18.623Z,11.26
2023-03-17T05:43:44.981Z,10.61
2023-03-17T05:46:11.376Z,11.23
2023-03-17T05:48:41.596Z,10.76
2023-03-17T05:51:08.526Z,10.99
2023-03-17T05:53:40.130Z,10.08
2023-03-17T05:56:09.326Z,11.00
2023-03-17T05:58:36.017Z,11.39
2023-03-17T06:01:18.106Z,10.73
2023-03-17T06:03:44.592Z,10.85
2023-03-17T06:06:10.996Z,10.39
2023-03-17T06:08:37.385Z,11.06
2023-03-17T06:11:03.728Z,11.00
2023-03-17T06:13:30.260Z,11.48
2023-03-17T06:15:57.469Z,11.29
2023-03-17T06:18:23.935Z,11.49
2023-03-17T06:20:50.646Z,11.10
2023-03-17T06:23:18.743Z,11.67
2023-03-17T06:25:45.101Z,10.91
2023-03-17T06:28:23.029Z,11.41
2023-03-17T06:30:50.026Z,11.70
2023-03-17T06:33:23.108Z,11.07
2023-03-17T06:35:49.520Z,11.07
2023-03-17T06:38:15.953Z,11.60
2023-03-17T06:40:42.392Z,11.54
2023-03-17T06:43:09.206Z,11.57
2023-03-17T06:45:35.960Z,11.58
2023-03-17T06:48:02.613Z,11.75
2023-03-17T06:50:29.093Z,11.67
2023-03-17T06:52:55.938Z,11.75
2023-03-17T06:55:22.329Z,11.60
2023-03-17T06:57:50.947Z,11.61
2023-03-17T07:00:22.367Z,11.66
2023-03-17T07:02:49.596Z,11.58
2023-03-17T07:05:16.136Z,11.28
2023-03-17T07:07:42.507Z,10.89
2023-03-17T07:10:13.683Z,11.21
2023-03-17T07:12:40.066Z,11.55
2023-03-17T07:15:06.890Z,12.13
2023-03-17T07:17:33.868Z,11.80
2023-03-17T07:20:00.286Z,11.84
2023-03-17T07:22:27.207Z,11.91
2023-03-17T07:24:53.590Z,11.65
2023-03-17T07:27:22.843Z,11.77
2023-03-17T07:29:49.576Z,12.16
2023-03-17T07:32:16.039Z,11.78
2023-03-17T07:34:42.642Z,12.28
2023-03-17T07:37:10.190Z,12.42
2023-03-17T07:39:36.557Z,12.38
2023-03-17T07:42:02.940Z,12.48
2023-03-17T07:44:29.384Z,12.39
2023-03-17T07:46:56.489Z,12.42
2023-03-17T07:49:34.297Z,12.51
2023-03-17T07:52:06.976Z,12.51
2023-03-17T07:54:33.627Z,11.94
2023-03-17T07:56:59.958Z,12.54
2023-03-17T07:59:26.344Z,12.53
2023-03-17T08:01:53.132Z,12.04
2023-03-17T08:04:19.513Z,12.53
2023-03-17T08:06:46.882Z,12.15
2023-03-17T08:09:13.278Z,12.84
2023-03-17T08:11:39.686Z,12.22
2023-03-17T08:14:06.642Z,12.98
2023-03-17T08:16:33.528Z,12.29
2023-03-17T08:19:00.191Z,12.37
2023-03-17T08:21:30.349Z,11.91
2023-03-17T08:23:56.779Z,12.84
2023-03-17T08:26:23.392Z,13.12
2023-03-17T08:28:50.222Z,13.09
2023-03-17T08:31:19.578Z,13.35
2023-03-17T08:33:48.487Z,13.30
2023-03-17T08:36:16.394Z,13.25
2023-03-17T08:38:45.066Z,13.38
2023-03-17T08:41:16.495Z,12.74
2023-03-17T08:43:44.001Z,13.03
2023-03-17T08:46:22.984Z,13.63
2023-03-17T08:48:51.117Z,13.62
2023-03-17T08:51:21.494Z,13.79
2023-03-17T08:53:49.716Z,13.48
2023-03-17T08:56:16.834Z,13.92
2023-03-17T08:58:49.278Z,13.90
2023-03-17T09:01:16.543Z,14.13
2023-03-17T09:03:52.323Z,14.20
2023-03-17T09:06:19.257Z,14.69
2023-03-17T09:08:47.405Z,14.85
2023-03-17T09:11:17.085Z,14.04
2023-03-17T09:13:44.830Z,15.03
2023-03-17T09:16:11.494Z,15.07
2023-03-17T09:18:38.878Z,14.99
2023-03-17T09:21:06.058Z,14.84
2023-03-17T09:23:33.570Z,14.53
2023-03-17T09:26:00.728Z,14.82
2023-03-17T09:28:27.692Z,15.31
2023-03-17T09:30:58.559Z,15.68
2023-03-17T09:33:25.762Z,15.38
2023-03-17T09:35:52.891Z,16.05
2023-03-17T09:38:19.371Z,15.58
2023-03-17T09:41:12.113Z,16.11
2023-03-17T09:43:55.564Z,16.26
2023-03-17T09:46:41.627Z,16.00
2023-03-17T09:49:11.905Z,15.96
2023-03-17T09:51:38.750Z,16.52
2023-03-17T09:54:12.768Z,16.28
2023-03-17T09:56:43.972Z,16.25
2023-03-17T09:59:30.384Z,16.54
2023-03-17T10:01:57.587Z,16.28
2023-03-17T10:04:24.718Z,16.42
2023-03-17T10:06:57.794Z,16.16
2023-03-17T10:09:46.544Z,16.72
2023-03-17T10:12:27.978Z,16.53
2023-03-17T10:15:02.692Z,16.71
2023-03-17T10:17:37.499Z,17.28
2023-03-17T10:20:09.040Z,16.98
2023-03-17T10:22:42.912Z,17.56
2023-03-17T10:25:14.924Z,17.64
2023-03-17T10:27:45.394Z,17.69
2023-03-17T10:30:17.154Z,16.93
2023-03-17T10:32:46.657Z,17.72
2023-03-17T10:35:16.082Z,17.86
2023-03-17T10:37:44.061Z,18.14
2023-03-17T10:40:21.889Z,18.22
2023-03-17T10:42:53.131Z,17.57
2023-03-17T10:45:30.720Z,18.79
2023-03-17T10:47:58.611Z,19.52
2023-03-17T10:50:40.992Z,21.14
2023-03-17T10:53:18.281Z,20.89
2023-03-17T10:55:50.888Z,22.45
2023-03-17T10:58:20.327Z,23.48
2023-03-17T11:00:57.752Z,24.49
2023-03-17T11:03:29.995Z,23.89
2023-03-17T11:08:24.919Z,21.90
2023-03-17T11:10:56.823Z,21.59
2023-03-17T11:13:29.170Z,20.89
2023-03-17T11:16:23.312Z,21.56
2023-03-17T11:18:54.463Z,21.29
2023-03-17T11:21:27.496Z,21.97
2023-03-17T11:24:01.493Z,22.11
2023-03-17T11:26:41.314Z,22.78
2023-03-17T11:29:30.293Z,22.75
2023-03-17T11:32:16.526Z,22.46
2023-03-17T11:35:02.232Z,22.02
2023-03-17T11:38:03.000Z,21.42
2023-03-17T11:40:36.109Z,20.86
2023-03-17T11:43:18.936Z,21.41
2023-03-17T11:45:57.306Z,21.89
2023-03-17T11:48:29.925Z,22.14
2023-03-17T11:51:15.522Z,22.36
2023-03-17T11:53:53.630Z,22.54
2023-03-17T11:56:25.290Z,22.08
2023-03-17T11:58:57.374Z,22.28
2023-03-17T12:01:29.050Z,22.41
2023-03-17T12:04:20.316Z,22.31
2023-03-17T12:06:51.310Z,22.30
2023-03-17T12:09:39.477Z,22.37
2023-03-17T12:12:13.788Z,21.86
2023-03-17T12:14:48.647Z,21.72
2023-03-17T12:17:21.477Z,22.11
2023-03-17T12:19:58.365Z,21.53
2023-03-17T12:22:34.034Z,22.39
2023-03-17T12:25:12.553Z,22.30
2023-03-17T12:27:48.161Z,22.06
2023-03-17T12:30:29.087Z,21.87
2023-03-17T12:33:21.225Z,21.76
2023-03-17T12:35:47.954Z,21.77
2023-03-17T12:38:22.837Z,21.70
2023-03-17T12:41:05.498Z,21.87
2023-03-17T12:43:42.319Z,21.78
2023-03-17T12:46:38.278Z,21.94
2023-03-17T12:49:24.283Z,21.98
2023-03-17T12:52:16.739Z,22.07
2023-03-17T12:54:49.762Z,21.83
2023-03-17T12:57:30.938Z,22.18
2023-03-17T13:00:20.287Z,22.15
2023-03-17T13:02:51.017Z,22.09
2023-03-17T13:05:28.567Z,21.70
2023-03-17T13:07:57.311Z,22.22
2023-03-17T13:10:42.521Z,22.17
2023-03-17T13:13:23.141Z,22.19
2023-03-17T13:15:55.337Z,22.20
2023-03-17T13:18:33.989Z,22.32
2023-03-17T13:21:00.803Z,22.22
2023-03-17T13:23:43.969Z,22.03
2023-03-17T13:26:18.177Z,21.84
2023-03-17T13:28:50.176Z,21.97
2023-03-17T13:31:16.620Z,21.87
2023-03-17T13:33:54.522Z,21.81
2023-03-17T13:36:44.316Z,21.59
2023-03-17T13:39:28.369Z,21.83
2023-03-17T13:42:18.643Z,21.18
2023-03-17T13:45:19.632Z,21.64
2023-03-17T13:47:46.998Z,21.48
2023-03-17T13:50:17.534Z,21.56
2023-03-17T13:53:01.777Z,21.76
2023-03-17T13:55:36.214Z,21.97
2023-03-17T13:58:11.122Z,22.16
2023-03-17T14:00:41.242Z,22.33
2023-03-17T14:03:13.903Z,22.28
2023-03-17T14:05:41.656Z,22.00
2023-03-17T14:08:34.716Z,22.32
2023-03-17T14:11:19.401Z,22.44
2023-03-17T14:13:51.713Z,22.40
2023-03-17T14:16:26.437Z,22.24
2023-03-17T14:19:00.277Z,22.32
2023-03-17T14:21:35.960Z,22.56
2023-03-17T14:24:24.500Z,22.79
2023-03-17T14:26:52.323Z,22.99
2023-03-17T14:29:25.204Z,23.26
2023-03-17T14:32:02.390Z,23.69
2023-03-17T14:34:28.955Z,23.24
2023-03-17T14:37:00.726Z,23.54
2023-03-17T14:39:27.198Z,22.59
2023-03-17T14:41:59.200Z,22.96
2023-03-17T14:44:25.992Z,22.91
2023-03-17T14:47:02.261Z,22.72
2023-03-17T14:49:30.788Z,22.88
2023-03-17T14:51:58.268Z,23.10
2023-03-17T14:54:34.121Z,23.15
2023-03-17T14:57:13.552Z,23.09
2023-03-17T14:59:55.012Z,23.11
2023-03-17T15:02:27.742Z,22.20
2023-03-17T15:05:01.238Z,22.62
2023-03-17T15:07:42.941Z,22.48
2023-03-17T15:10:19.241Z,22.71
2023-03-17T15:12:46.713Z,22.34
2023-03-17T15:15:27.813Z,22.50
2023-03-17T15:17:56.878Z,22.48
2023-03-17T15:20:24.329Z,22.11
2023-03-17T15:23:04.343Z,22.44
2023-03-17T15:25:39.266Z,22.32
2023-03-17T15:28:12.739Z,22.48
2023-03-17T15:30:47.683Z,22.44
2023-03-17T15:33:34.565Z,22.26
2023-03-17T15:36:01.566Z,22.21
2023-03-17T15:38:28.694Z,21.71
2023-03-17T15:40:55.076Z,22.14
2023-03-17T15:43:22.487Z,22.09
2023-03-17T15:45:59.917Z,22.08
2023-03-17T15:48:29.828Z,22.16
2023-03-17T15:50:59.900Z,22.01
2023-03-17T15:53:26.827Z,21.96
2023-03-17T15:55:53.350Z,22.03
2023-03-17T15:58:20.317Z,22.09
2023-03-17T16:00:51.785Z,21.80
2023-03-17T16:03:32.210Z,22.05
2023-03-17T16:06:00.491Z,21.67
2023-03-17T16:08:27.027Z,21.53
2023-03-17T16:10:53.456Z,21.48
2023-03-17T16:13:20.269Z,21.60
2023-03-17T16:15:56.538Z,20.97
2023-03-17T16:18:32.694Z,20.93
2023-03-17T16:20:59.719Z,20.84
2023-03-17T16:23:29.627Z,20.90
2023-03-17T16:26:07.883Z,20.56
2023-03-17T16:28:41.122Z,20.61
2023-03-17T16:31:24.343Z,20.62
2023-03-17T16:33:53.476Z,20.81
2023-03-17T16:36:21.642Z,20.25
2023-03-17T16:38:49.108Z,20.62
2023-03-17T16:41:21.371Z,20.09
2023-03-17T16:44:01.918Z,20.39
2023-03-17T16:46:34.616Z,20.13
2023-03-17T16:49:01.890Z,20.21
2023-03-17T16:51:28.265Z,20.01
2023-03-17T16:53:56.016Z,20.05
2023-03-17T16:56:24.620Z,19.79
2023-03-17T16:58:51.147Z,19.83
2023-03-17T17:01:24.858Z,20.06
2023-03-17T17:03:51.316Z,19.92
2023-03-17T17:06:18.970Z,19.96
2023-03-17T17:08:46.750Z,19.48
2023-03-17T17:11:14.981Z,19.84
2023-03-17T17:13:42.848Z,19.65
2023-03-17T17:16:29.864Z,19.94
2023-03-17T17:18:57.403Z,19.96
2023-03-17T17:21:23.900Z,19.80
2023-03-17T17:23:52.826Z,19.69
2023-03-17T17:26:19.432Z,19.96
2023-03-17T17:28:45.913Z,19.81
2023-03-17T17:31:12.353Z,19.51
2023-03-17T17:33:39.024Z,19.50
2023-03-17T17:36:11.621Z,19.11
2023-03-17T17:38:38.107Z,19.58
2023-03-17T17:41:06.770Z,18.83
2023-03-17T17:43:33.332Z,19.39
2023-03-17T17:45:59.932Z,19.46
2023-03-17T17:48:27.974Z,19.52
2023-03-17T17:50:56.059Z,19.52
2023-03-17T17:53:22.897Z,19.00
2023-03-17T17:55:50.222Z,19.14
2023-03-17T17:58:20.026Z,19.22
2023-03-17T18:00:46.692Z,18.71
2023-03-17T18:03:13.281Z,19.17
2023-03-17T18:05:40.048Z,18.79
2023-03-17T18:08:06.640Z,18.49
2023-03-17T18:10:34.248Z,19.12
2023-03-17T18:13:00.972Z,19.18
2023-03-17T18:15:27.807Z,18.32
2023-03-17T18:17:54.618Z,19.05
2023-03-17T18:20:23.206Z,19.28
2023-03-17T18:22:50.857Z,18.95
2023-03-17T18:25:19.095Z,18.80
2023-03-17T18:27:47.135Z,18.90
2023-03-17T18:30:20.673Z,18.78
2023-03-17T18:32:49.690Z,18.36
2023-03-17T18:35:19.521Z,17.98
2023-03-17T18:37:46.190Z,18.45
2023-03-17T18:40:16.403Z,18.47
2023-03-17T18:42:45.628Z,18.29
2023-03-17T18:45:12.578Z,18.22
2023-03-17T18:47:40.066Z,17.79
2023-03-17T18:50:08.260Z,18.85
2023-03-17T18:52:37.234Z,18.84
2023-03-17T18:55:05.371Z,19.01
2023-03-17T18:57:32.164Z,18.49
2023-03-17T18:59:58.592Z,18.49
2023-03-17T19:02:25.216Z,18.26
2023-03-17T19:04:51.660Z,18.21
2023-03-17T19:07:18.491Z,18.67
2023-03-17T19:09:45.131Z,18.03
2023-03-17T19:12:12.122Z,17.57
2023-03-17T19:14:38.858Z,18.70
2023-03-17T19:17:05.549Z,17.54
2023-03-17T19:19:33.382Z,18.75
2023-03-17T19:22:00.308Z,18.61
2023-03-17T19:24:27.396Z,18.71
2023-03-17T19:26:53.879Z,18.52
2023-03-17T19:29:20.323Z,17.66
2023-03-17T19:31:48.477Z,17.58
2023-03-17T19:34:15.350Z,17.02
2023-03-17T19:36:46.258Z,17.42
2023-03-17T19:39:13.718Z,17.62
2023-03-17T19:41:40.367Z,17.76
2023-03-17T19:44:06.931Z,17.51
2023-03-17T19:46:37.137Z,17.45
2023-03-17T19:49:04.751Z,18.04
2023-03-17T19:51:32.817Z,18.12
2023-03-17T19:53:59.545Z,18.00
2023-03-17T19:56:27.875Z,17.54
2023-03-17T19:58:54.890Z,17.73
2023-03-17T20:01:22.157Z,17.49
2023-03-17T20:03:48.891Z,17.94
2023-03-17T20:06:15.586Z,17.50
2023-03-17T20:08:43.319Z,17.89
2023-03-17T20:11:14.102Z,17.61
2023-03-17T20:14:01.644Z,17.53
2023-03-17T20:16:31.321Z,17.47
2023-03-17T20:18:57.909Z,17.87
2023-03-17T20:21:24.395Z,16.98
2023-03-17T20:23:51.178Z,17.13
2023-03-17T20:26:17.677Z,17.48
2023-03-17T20:28:44.066Z,17.38
2023-03-17T20:31:10.736Z,17.28
2023-03-17T20:33:37.177Z,17.07
2023-03-17T20:36:04.626Z,17.17
2023-03-17T20:38:33.332Z,17.94
2023-03-17T20:41:13.690Z,18.09
2023-03-17T20:43:40.431Z,17.76
2023-03-17T20:46:15.065Z,17.68
2023-03-17T20:48:41.659Z,17.70
2023-03-17T20:51:15.570Z,17.74
2023-03-17T20:53:46.783Z,16.99
2023-03-17T20:56:19.657Z,17.94
2023-03-17T20:58:47.006Z,17.88
2023-03-17T21:01:14.875Z,18.13
2023-03-17T21:03:42.802Z,17.59
2023-03-17T21:06:10.475Z,17.97
2023-03-17T21:08:38.053Z,18.08
2023-03-17T21:11:06.956Z,17.39
2023-03-17T21:13:34.828Z,17.36
2023-03-17T21:16:02.197Z,17.52
2023-03-17T21:18:29.548Z,17.89
2023-03-17T21:20:56.675Z,17.05
2023-03-17T21:23:23.771Z,17.27
2023-03-17T21:25:56.394Z,16.98
2023-03-17T21:28:23.540Z,17.19
2023-03-17T21:30:50.202Z,17.38
2023-03-17T21:33:16.668Z,17.26
2023-03-17T21:35:43.176Z,17.02
2023-03-17T21:38:10.068Z,17.87
2023-03-17T21:40:36.462Z,17.18
2023-03-17T21:43:03.672Z,17.28
2023-03-17T21:45:30.306Z,17.49
2023-03-17T21:47:56.829Z,17.63
2023-03-17T21:50:23.318Z,16.73
2023-03-17T21:52:49.883Z,16.62
2023-03-17T21:55:16.520Z,16.55
2023-03-17T21:57:43.150Z,17.45
2023-03-17T22:00:11.662Z,17.63
2023-03-17T22:02:38.058Z,17.46
2023-03-17T22:05:05.325Z,17.77
2023-03-17T22:08:02.605Z,17.65
2023-03-17T22:10:29.321Z,17.13
2023-03-17T22:13:10.285Z,16.32
2023-03-17T22:15:40.957Z,17.16
2023-03-17T22:18:51.890Z,16.88
2023-03-17T22:21:33.837Z,17.64
2023-03-17T22:24:12.581Z,17.52
2023-03-17T22:26:39.100Z,17.12
2023-03-17T22:29:05.486Z,17.38
2023-03-17T22:31:45.353Z,16.90
2023-03-17T22:34:26.676Z,17.40
2023-03-17T22:36:53.032Z,16.88
2023-03-17T22:39:19.452Z,17.46
2023-03-17T22:41:46.085Z,16.88
2023-03-17T22:44:12.596Z,17.22
2023-03-17T22:46:42.833Z,17.57
2023-03-17T22:49:10.227Z,16.89
2023-03-17T22:51:42.579Z,17.44
2023-03-17T22:54:11.208Z,16.24
2023-03-17T22:56:37.669Z,16.89
2023-03-17T22:59:04.283Z,16.99
2023-03-17T23:01:31.841Z,17.22
2023-03-17T23:03:58.358Z,16.34
2023-03-17T23:06:25.052Z,17.23
2023-03-17T23:08:52.177Z,17.30
2023-03-17T23:11:22.973Z,17.56
2023-03-17T23:13:50.562Z,17.35
2023-03-17T23:16:17.100Z,17.19
2023-03-17T23:18:46.689Z,17.33
2023-03-17T23:21:35.857Z,17.29
2023-03-17T23:24:03.758Z,17.16
2023-03-17T23:26:31.854Z,17.34
2023-03-17T23:28:58.470Z,17.23
2023-03-17T23:31:25.469Z,16.49
2023-03-17T23:33:52.553Z,17.06
2023-03-17T23:36:19.560Z,17.13
2023-03-17T23:38:46.324Z,16.42
2023-03-17T23:41:14.299Z,16.96
2023-03-17T23:43:41.174Z,16.40
2023-03-17T23:46:08.259Z,16.84
2023-03-17T23:48:34.687Z,16.99
2023-03-17T23:51:02.892Z,17.14
2023-03-17T23:53:29.338Z,17.07
2023-03-17T23:55:55.698Z,16.42
2023-03-17T23:58:22.852Z,16.71
